createdAt,value
2017-03-15T00:11:48.917Z,0
2017-03-15T00:12:37.153Z,0
2017-03-15T00:13:23.833Z,0
2017-03-15T00:14:05.020Z,0
2017-03-15T00:14:48.864Z,0
2017-03-15T00:15:29.286Z,0
2017-03-15T00:16:10.480Z,0
2017-03-15T00:23:57.789Z,0
2017-03-15T00:24:46.363Z,0
2017-03-15T00:25:33.498Z,0
2017-03-15T00:26:22.317Z,0
2017-03-15T00:27:14.219Z,0
2017-03-15T00:28:04.658Z,0
2017-03-15T00:28:53.433Z,0
2017-03-15T00:29:43.828Z,0
2017-03-15T00:30:36.128Z,0
2017-03-15T00:31:26.515Z,0
2017-03-15T00:32:16.943Z,0
2017-03-15T00:33:07.393Z,0
2017-03-15T00:33:58.000Z,0
2017-03-15T00:34:46.455Z,0
2017-03-15T00:42:36.002Z,0
2017-03-15T00:43:24.292Z,0
2017-03-15T00:44:10.580Z,0
2017-03-15T00:44:59.266Z,0
2017-03-15T00:45:50.790Z,0
2017-03-15T00:46:39.281Z,0
2017-03-15T00:47:28.396Z,0
2017-03-15T00:48:16.522Z,0
2017-03-15T00:49:05.496Z,0
2017-03-15T00:49:53.958Z,0
2017-03-15T00:50:42.660Z,0
2017-03-15T00:51:31.669Z,0
2017-03-15T00:52:18.675Z,0
2017-03-15T00:52:59.139Z,0
2017-03-15T00:53:40.434Z,0
2017-03-15T00:54:27.675Z,0
2017-03-15T00:55:13.881Z,0
2017-03-15T00:55:55.874Z,0
2017-03-15T00:58:16.005Z,0
2017-03-15T00:59:03.130Z,0
2017-03-15T00:59:51.489Z,0
2017-03-15T01:00:37.667Z,0
2017-03-15T01:01:18.080Z,0
2017-03-15T01:02:03.182Z,0
2017-03-15T01:02:44.488Z,0
2017-03-15T01:03:26.157Z,0
2017-03-15T01:04:11.227Z,0
2017-03-15T01:05:00.253Z,0
2017-03-15T01:05:43.311Z,0
2017-03-15T01:06:25.150Z,0
2017-03-15T01:07:05.769Z,0
2017-03-15T01:07:50.856Z,0
2017-03-15T01:11:47.659Z,0
2017-03-15T01:14:06.729Z,0
2017-03-15T01:14:55.602Z,0
2017-03-15T01:15:44.006Z,0
2017-03-15T01:16:37.481Z,0
2017-03-15T01:17:26.299Z,0
2017-03-15T01:18:14.710Z,0
2017-03-15T01:19:03.321Z,0
2017-03-15T01:19:50.277Z,0
2017-03-15T01:20:37.335Z,0
2017-03-15T01:21:22.428Z,0
2017-03-15T01:22:11.203Z,0
2017-03-15T01:22:56.267Z,0
2017-03-15T01:23:37.548Z,0
2017-03-15T01:27:46.275Z,0
2017-03-15T01:31:38.425Z,0
2017-03-15T01:32:27.273Z,0
2017-03-15T01:33:15.852Z,0
2017-03-15T01:34:04.704Z,0
2017-03-15T01:34:49.103Z,0
2017-03-15T01:35:29.471Z,0
2017-03-15T01:36:10.591Z,0
2017-03-15T01:36:52.596Z,0
2017-03-15T01:37:37.819Z,0
2017-03-15T01:38:19.587Z,0
2017-03-15T01:39:07.577Z,0
2017-03-15T01:39:50.604Z,0
2017-03-15T01:40:31.990Z,0
2017-03-15T01:41:17.107Z,0
2017-03-15T01:41:59.103Z,0
2017-03-15T01:42:40.449Z,0
2017-03-15T01:43:25.105Z,0
2017-03-15T01:44:06.512Z,0
2017-03-15T01:44:50.610Z,0
2017-03-15T01:45:34.703Z,0
2017-03-15T01:48:08.548Z,0
2017-03-15T01:48:54.205Z,0
2017-03-15T01:49:42.202Z,0
2017-03-15T01:50:27.979Z,0
2017-03-15T01:51:10.139Z,0
2017-03-15T01:51:51.369Z,0
2017-03-15T01:52:31.709Z,0
2017-03-15T01:53:12.373Z,0
2017-03-15T01:56:02.155Z,0
2017-03-15T01:56:50.438Z,0
2017-03-15T02:00:39.998Z,0
2017-03-15T02:01:27.889Z,0
2017-03-15T02:02:10.732Z,0
2017-03-15T02:02:54.673Z,0
2017-03-15T02:03:35.928Z,0
2017-03-15T02:06:11.886Z,0
2017-03-15T02:07:00.286Z,0
2017-03-15T02:07:48.693Z,0
2017-03-15T02:10:15.164Z,0
2017-03-15T02:11:03.229Z,0
2017-03-15T02:11:51.925Z,0
2017-03-15T02:12:40.436Z,0
2017-03-15T02:13:28.788Z,0
2017-03-15T02:14:18.163Z,0
2017-03-15T02:15:07.021Z,0
2017-03-15T02:15:55.228Z,0
2017-03-15T02:16:43.982Z,0
2017-03-15T02:17:32.328Z,0
2017-03-15T02:18:20.986Z,0
2017-03-15T02:19:09.646Z,0
2017-03-15T02:19:58.067Z,0
2017-03-15T02:22:20.169Z,0
2017-03-15T02:23:08.820Z,0
2017-03-15T02:23:49.022Z,0
2017-03-15T02:24:31.109Z,0
2017-03-15T02:25:13.145Z,0
2017-03-15T02:25:54.548Z,0
2017-03-15T02:26:35.701Z,0
2017-03-15T02:27:16.371Z,0
2017-03-15T02:27:56.785Z,0
2017-03-15T02:28:39.405Z,0
2017-03-15T02:29:22.960Z,0
2017-03-15T02:30:06.169Z,0
2017-03-15T02:30:52.393Z,0
2017-03-15T02:31:34.600Z,0
2017-03-15T02:35:43.950Z,0
2017-03-15T02:41:11.718Z,0
2017-03-15T02:42:00.941Z,0
2017-03-15T02:42:48.810Z,0
2017-03-15T02:43:36.957Z,0
2017-03-15T02:45:55.961Z,0
2017-03-15T02:46:47.483Z,0
2017-03-15T02:47:34.935Z,0
2017-03-15T02:48:27.848Z,0
2017-03-15T02:49:11.650Z,0
2017-03-15T02:49:55.752Z,0
2017-03-15T02:50:37.692Z,0
2017-03-15T02:51:20.684Z,0
2017-03-15T02:52:02.043Z,0
2017-03-15T02:52:45.365Z,0
2017-03-15T02:56:45.361Z,0
2017-03-15T02:57:42.672Z,0
2017-03-15T02:58:25.868Z,0
2017-03-15T03:00:43.654Z,0
2017-03-15T03:01:31.850Z,0
2017-03-15T03:02:19.808Z,0
2017-03-15T03:03:08.700Z,0
2017-03-15T03:10:27.805Z,0
2017-03-15T03:11:16.036Z,0
2017-03-15T03:15:39.708Z,0
2017-03-15T03:16:28.057Z,0
2017-03-15T03:17:16.501Z,0
2017-03-15T03:18:05.497Z,0
2017-03-15T03:18:53.022Z,0
2017-03-15T03:19:41.697Z,0
2017-03-15T03:20:28.124Z,0
2017-03-15T03:21:12.936Z,0
2017-03-15T03:21:54.100Z,0
2017-03-15T03:22:44.006Z,0
2017-03-15T03:23:25.255Z,0
2017-03-15T03:24:05.672Z,0
2017-03-15T03:24:49.485Z,0
2017-03-15T03:25:32.776Z,0
2017-03-15T03:26:13.657Z,0
2017-03-15T03:30:31.484Z,0
2017-03-15T03:31:20.399Z,0
2017-03-15T03:32:09.353Z,0
2017-03-15T03:32:56.728Z,0
2017-03-15T03:33:45.216Z,0
2017-03-15T03:34:33.133Z,0
2017-03-15T03:36:55.870Z,0
2017-03-15T03:37:43.936Z,0
2017-03-15T03:40:08.137Z,0
2017-03-15T03:40:56.421Z,0
2017-03-15T03:41:45.021Z,0
2017-03-15T03:42:33.422Z,0
2017-03-15T03:43:22.049Z,0
2017-03-15T03:44:10.548Z,0
2017-03-15T03:45:01.413Z,0
2017-03-15T03:45:49.689Z,0
2017-03-15T03:46:37.555Z,0
2017-03-15T03:47:26.114Z,0
2017-03-15T03:48:12.759Z,0
2017-03-15T03:48:55.388Z,0
2017-03-15T03:51:21.260Z,0
2017-03-15T03:55:25.428Z,0
2017-03-15T03:56:07.822Z,0
2017-03-15T03:56:48.286Z,0
2017-03-15T03:57:29.333Z,0
2017-03-15T03:58:10.583Z,0
2017-03-15T03:58:54.716Z,0
2017-03-15T03:59:36.078Z,0
2017-03-15T04:00:16.554Z,0
2017-03-15T04:00:57.013Z,0
2017-03-15T04:01:37.412Z,0
2017-03-15T04:02:18.538Z,0
2017-03-15T04:03:01.901Z,0
2017-03-15T04:03:42.307Z,0
2017-03-15T04:04:22.720Z,0
2017-03-15T04:05:03.171Z,0
2017-03-15T04:09:11.010Z,0
2017-03-15T04:10:00.037Z,0
2017-03-15T04:10:48.575Z,0
2017-03-15T04:11:37.238Z,0
2017-03-15T04:12:26.000Z,0
2017-03-15T04:13:14.897Z,0
2017-03-15T04:14:03.493Z,0
2017-03-15T04:14:52.004Z,0
2017-03-15T04:15:40.896Z,0
2017-03-15T04:16:25.872Z,0
2017-03-15T04:17:06.311Z,0
2017-03-15T04:17:47.321Z,0
2017-03-15T04:18:29.355Z,0
2017-03-15T04:19:10.584Z,0
2017-03-15T04:19:51.195Z,0
2017-03-15T04:22:10.214Z,0
2017-03-15T04:25:02.263Z,0
2017-03-15T04:25:49.847Z,0
2017-03-15T04:26:38.661Z,0
2017-03-15T04:27:27.587Z,0
2017-03-15T04:28:14.010Z,0
2017-03-15T04:28:54.211Z,0
2017-03-15T04:29:34.874Z,0
2017-03-15T04:30:15.224Z,0
2017-03-15T04:30:57.118Z,0
2017-03-15T04:31:38.275Z,0
2017-03-15T04:32:29.361Z,0
2017-03-15T04:33:10.379Z,0
2017-03-15T04:33:53.715Z,0
2017-03-15T04:36:13.672Z,0
2017-03-15T04:37:01.961Z,0
2017-03-15T04:37:50.327Z,0
2017-03-15T04:38:38.816Z,0
2017-03-15T04:39:27.426Z,0
2017-03-15T04:40:11.234Z,0
2017-03-15T04:40:52.969Z,0
2017-03-15T04:43:11.768Z,0
2017-03-15T04:43:52.855Z,0
2017-03-15T04:44:33.306Z,0
2017-03-15T04:45:14.293Z,0
2017-03-15T04:45:54.683Z,0
2017-03-15T04:46:35.103Z,0
2017-03-15T04:47:18.459Z,0
2017-03-15T04:47:59.697Z,0
2017-03-15T04:48:40.971Z,0
2017-03-15T04:49:25.069Z,0
2017-03-15T04:50:06.140Z,0
2017-03-15T04:54:20.085Z,0
2017-03-15T04:55:08.463Z,0
2017-03-15T04:55:56.163Z,0
2017-03-15T04:56:44.934Z,0
2017-03-15T04:57:33.973Z,0
2017-03-15T04:58:22.395Z,0
2017-03-15T04:59:11.465Z,0
2017-03-15T05:00:00.250Z,0
2017-03-15T05:00:48.907Z,0
2017-03-15T05:01:37.313Z,0
2017-03-15T05:02:25.590Z,0
2017-03-15T05:03:14.659Z,0
2017-03-15T05:04:03.594Z,0
2017-03-15T05:04:52.380Z,0
2017-03-15T05:05:41.029Z,0
2017-03-15T05:06:29.302Z,0
2017-03-15T05:09:09.785Z,0
2017-03-15T05:09:58.247Z,0
2017-03-15T05:10:47.224Z,0
2017-03-15T05:13:07.982Z,0
2017-03-15T05:13:56.505Z,0
2017-03-15T05:14:45.461Z,0
2017-03-15T05:15:33.503Z,0
2017-03-15T05:16:22.101Z,0
2017-03-15T05:17:10.257Z,0
2017-03-15T05:17:59.000Z,0
2017-03-15T05:18:47.535Z,0
2017-03-15T05:19:36.678Z,0
2017-03-15T05:20:24.979Z,0
2017-03-15T05:21:13.628Z,0
2017-03-15T05:22:02.508Z,0
2017-03-15T05:22:50.941Z,0
2017-03-15T05:23:39.347Z,0
2017-03-15T05:24:23.128Z,0
2017-03-15T05:27:17.356Z,0
2017-03-15T05:28:05.709Z,0
2017-03-15T05:28:54.172Z,0
2017-03-15T05:29:42.828Z,0
2017-03-15T05:30:31.451Z,0
2017-03-15T05:31:20.221Z,0
2017-03-15T05:32:09.010Z,0
2017-03-15T05:32:57.348Z,0
2017-03-15T05:33:45.909Z,0
2017-03-15T05:34:34.445Z,0
2017-03-15T05:35:23.572Z,0
2017-03-15T05:36:12.139Z,0
2017-03-15T05:37:00.317Z,0
2017-03-15T05:37:49.022Z,0
2017-03-15T05:38:37.713Z,0
2017-03-15T05:39:26.285Z,0
2017-03-15T05:40:14.957Z,0
2017-03-15T05:41:03.808Z,0
2017-03-15T05:41:47.249Z,0
2017-03-15T05:47:35.066Z,0
2017-03-15T05:48:23.364Z,0
2017-03-15T05:49:10.432Z,0
2017-03-15T05:49:59.862Z,0
2017-03-15T05:50:48.055Z,0
2017-03-15T05:51:36.570Z,0
2017-03-15T05:52:25.826Z,0
2017-03-15T05:53:14.121Z,0
2017-03-15T05:54:02.728Z,0
2017-03-15T05:54:51.466Z,0
2017-03-15T05:55:40.386Z,0
2017-03-15T05:56:28.553Z,0
2017-03-15T05:57:17.143Z,0
2017-03-15T05:58:05.491Z,0
2017-03-15T05:58:54.114Z,0
2017-03-15T05:59:42.942Z,0
2017-03-15T06:00:31.898Z,0
2017-03-15T06:01:20.824Z,0
2017-03-15T06:02:09.400Z,0
2017-03-15T06:02:58.433Z,0
2017-03-15T06:05:37.895Z,0
2017-03-15T06:06:26.407Z,0
2017-03-15T06:07:14.579Z,0
2017-03-15T06:08:03.176Z,0
2017-03-15T06:08:52.437Z,0
2017-03-15T06:09:40.627Z,0
2017-03-15T06:10:29.157Z,0
2017-03-15T06:11:18.387Z,0
2017-03-15T06:12:06.477Z,0
2017-03-15T06:12:55.176Z,0
2017-03-15T06:13:43.520Z,0
2017-03-15T06:14:32.441Z,0
2017-03-15T06:15:21.425Z,0
2017-03-15T06:16:09.617Z,0
2017-03-15T06:20:24.196Z,0
2017-03-15T07:23:00.268Z,0
2017-03-15T07:23:49.720Z,0
2017-03-15T07:24:37.866Z,0
2017-03-15T07:25:26.464Z,0
2017-03-15T07:26:15.139Z,0
2017-03-15T07:27:04.997Z,0
2017-03-15T07:27:53.491Z,0
2017-03-15T07:30:30.800Z,0
2017-03-15T07:31:19.526Z,0
2017-03-15T07:32:08.447Z,0
2017-03-15T07:32:57.056Z,0
2017-03-15T07:33:44.512Z,0
2017-03-15T07:34:32.683Z,0
2017-03-15T07:35:21.228Z,0
2017-03-15T07:36:09.804Z,0
2017-03-15T07:36:58.916Z,0
2017-03-15T07:37:47.561Z,0
2017-03-15T07:40:09.658Z,0
2017-03-15T07:40:58.299Z,0
2017-03-15T07:41:46.517Z,0
2017-03-15T07:42:35.311Z,0
2017-03-15T07:43:23.628Z,0
2017-03-15T07:44:12.790Z,0
2017-03-15T07:45:01.018Z,0
2017-03-15T07:45:49.540Z,0
2017-03-15T07:46:38.127Z,0
2017-03-15T07:47:26.801Z,0
2017-03-15T07:48:15.285Z,0
2017-03-15T07:49:03.835Z,0
2017-03-15T07:49:52.696Z,0
2017-03-15T07:50:41.266Z,0
2017-03-15T07:51:29.830Z,0
2017-03-15T07:52:18.340Z,0
2017-03-15T07:53:06.934Z,0
2017-03-15T07:53:55.433Z,0
2017-03-15T07:54:43.907Z,0
2017-03-15T07:55:32.744Z,0
2017-03-15T07:56:21.702Z,0
2017-03-15T07:57:09.913Z,0
2017-03-15T07:57:58.325Z,0
2017-03-15T07:58:47.008Z,0
2017-03-15T07:59:35.880Z,0
2017-03-15T08:00:24.664Z,0
2017-03-15T08:01:12.883Z,0
2017-03-15T08:01:53.357Z,0
2017-03-15T08:02:33.786Z,0
2017-03-15T08:03:15.162Z,0
2017-03-15T08:03:56.636Z,0
2017-03-15T08:09:25.986Z,0
2017-03-15T08:10:14.102Z,0
2017-03-15T08:11:03.465Z,0
2017-03-15T08:11:51.887Z,0
2017-03-15T08:12:40.468Z,0
2017-03-15T08:13:28.632Z,0
2017-03-15T08:14:17.110Z,0
2017-03-15T08:15:06.006Z,0
2017-03-15T08:15:54.395Z,0
2017-03-15T08:16:43.396Z,0
2017-03-15T08:17:31.638Z,0
2017-03-15T08:18:20.217Z,0
2017-03-15T08:19:08.972Z,0
2017-03-15T08:19:57.776Z,0
2017-03-15T08:20:46.122Z,0
2017-03-15T08:21:35.021Z,0
2017-03-15T08:22:23.153Z,0
2017-03-15T08:23:11.947Z,0
2017-03-15T08:25:33.001Z,0
2017-03-15T08:26:21.848Z,0
2017-03-15T08:27:10.267Z,0
2017-03-15T08:27:59.228Z,0
2017-03-15T08:28:47.918Z,0
2017-03-15T08:29:36.300Z,0
2017-03-15T08:30:24.752Z,0
2017-03-15T08:31:13.362Z,0
2017-03-15T08:32:01.989Z,0
2017-03-15T08:32:51.008Z,0
2017-03-15T08:33:39.578Z,0
2017-03-15T08:34:28.169Z,0
2017-03-15T08:35:16.542Z,0
2017-03-15T08:36:05.052Z,0
2017-03-15T08:36:54.007Z,0
2017-03-15T08:37:42.441Z,0
2017-03-15T08:38:31.293Z,0
2017-03-15T08:39:19.733Z,0
2017-03-15T08:40:08.772Z,0
2017-03-15T08:40:57.415Z,0
2017-03-15T08:41:45.921Z,0
2017-03-15T08:42:34.849Z,0
2017-03-15T08:43:22.984Z,0
2017-03-15T08:44:11.791Z,0
2017-03-15T08:45:00.379Z,0
2017-03-15T08:45:49.034Z,0
2017-03-15T08:46:37.900Z,0
2017-03-15T08:47:26.295Z,0
2017-03-15T08:48:15.368Z,0
2017-03-15T08:49:03.796Z,0
2017-03-15T08:49:52.418Z,0
2017-03-15T08:50:40.836Z,0
2017-03-15T08:51:29.636Z,0
2017-03-15T08:52:18.185Z,0
2017-03-15T08:53:06.573Z,0
2017-03-15T08:53:55.053Z,0
2017-03-15T08:54:43.662Z,0
2017-03-15T08:55:32.575Z,0
2017-03-15T08:56:21.146Z,0
2017-03-15T08:57:10.145Z,0
2017-03-15T08:57:58.812Z,0
2017-03-15T08:58:47.799Z,0
2017-03-15T08:59:35.986Z,0
2017-03-15T09:00:24.502Z,0
2017-03-15T09:01:13.634Z,0
2017-03-15T09:02:02.056Z,0
2017-03-15T09:02:50.092Z,0
2017-03-15T09:05:11.648Z,0
2017-03-15T09:06:00.446Z,0
2017-03-15T09:06:48.817Z,0
2017-03-15T09:07:37.580Z,0
2017-03-15T09:08:24.709Z,0
2017-03-15T09:09:13.820Z,0
2017-03-15T09:10:02.247Z,0
2017-03-15T09:10:50.958Z,0
2017-03-15T09:11:39.544Z,0
2017-03-15T09:12:28.277Z,0
2017-03-15T09:13:16.977Z,0
2017-03-15T09:14:05.166Z,0
2017-03-15T09:14:53.800Z,0
2017-03-15T09:15:42.539Z,0
2017-03-15T09:16:31.453Z,0
2017-03-15T09:17:20.058Z,0
2017-03-15T09:18:08.568Z,0
2017-03-15T09:18:57.585Z,0
2017-03-15T09:19:45.277Z,0
2017-03-15T09:20:33.757Z,0
2017-03-15T09:21:23.005Z,0
2017-03-15T09:22:11.174Z,0
2017-03-15T09:23:00.204Z,0
2017-03-15T09:23:48.591Z,0
2017-03-15T09:24:37.425Z,0
2017-03-15T09:25:25.773Z,0
2017-03-15T09:26:14.299Z,0
2017-03-15T09:27:02.978Z,0
2017-03-15T09:27:50.974Z,0
2017-03-15T09:28:39.645Z,0
2017-03-15T09:29:28.659Z,0
2017-03-15T09:30:16.843Z,0
2017-03-15T09:31:05.406Z,0
2017-03-15T09:31:48.523Z,0
2017-03-15T09:32:29.502Z,0
2017-03-15T09:33:09.935Z,0
2017-03-15T09:33:50.372Z,0
2017-03-15T09:34:31.530Z,0
2017-03-15T09:35:11.909Z,0
2017-03-15T09:35:52.343Z,0
2017-03-15T09:36:32.768Z,0
2017-03-15T09:37:14.013Z,0
2017-03-15T09:37:55.285Z,0
2017-03-15T09:38:40.543Z,0
2017-03-15T09:39:22.580Z,0
2017-03-15T09:40:02.999Z,0
2017-03-15T09:40:45.930Z,0
2017-03-15T09:41:28.011Z,0
2017-03-15T09:42:09.141Z,0
2017-03-15T09:42:50.411Z,0
2017-03-15T09:43:30.812Z,0
2017-03-15T09:44:11.955Z,0
2017-03-15T09:44:55.176Z,0
2017-03-15T09:45:36.444Z,0
2017-03-15T09:46:17.445Z,0
2017-03-15T09:46:57.856Z,0
2017-03-15T09:47:38.803Z,0
2017-03-15T09:48:19.250Z,0
2017-03-15T09:49:00.526Z,0
2017-03-15T09:49:42.515Z,0
2017-03-15T09:50:23.548Z,0
2017-03-15T09:51:03.922Z,0
2017-03-15T09:51:44.354Z,0
2017-03-15T09:52:25.275Z,0
2017-03-15T09:53:05.706Z,0
2017-03-15T09:53:46.679Z,0
2017-03-15T09:54:27.099Z,0
2017-03-15T09:55:08.447Z,0
2017-03-15T09:55:48.848Z,0
2017-03-15T09:56:30.093Z,0
2017-03-15T09:57:10.544Z,0
2017-03-15T09:57:51.470Z,0
2017-03-15T09:58:31.861Z,0
2017-03-15T09:59:12.600Z,0
2017-03-15T09:59:53.017Z,0
2017-03-15T10:00:37.970Z,0
2017-03-15T10:01:19.047Z,0
2017-03-15T10:02:00.302Z,0
2017-03-15T10:02:42.447Z,0
2017-03-15T10:03:23.523Z,0
2017-03-15T10:04:04.527Z,0
2017-03-15T10:04:44.971Z,0
2017-03-15T10:05:27.207Z,0
2017-03-15T10:06:10.707Z,0
2017-03-15T10:06:52.459Z,0
2017-03-15T10:07:32.942Z,0
2017-03-15T10:08:13.404Z,0
2017-03-15T10:08:54.795Z,0
2017-03-15T10:09:37.024Z,0
2017-03-15T10:10:18.305Z,0
2017-03-15T10:10:58.750Z,0
2017-03-15T10:13:26.246Z,0
2017-03-15T10:14:15.008Z,0
2017-03-15T10:15:03.306Z,0
2017-03-15T10:15:52.378Z,0
2017-03-15T10:16:40.759Z,0
2017-03-15T10:17:29.264Z,0
2017-03-15T10:18:17.806Z,0
2017-03-15T10:19:06.708Z,0
2017-03-15T10:19:55.082Z,0
2017-03-15T10:20:43.351Z,0
2017-03-15T10:21:31.922Z,0
2017-03-15T10:22:20.691Z,0
2017-03-15T10:23:09.387Z,0
2017-03-15T10:23:58.325Z,0
2017-03-15T10:24:46.960Z,0
2017-03-15T10:25:35.739Z,0
2017-03-15T10:26:25.855Z,0
2017-03-15T10:27:14.247Z,0
2017-03-15T10:28:03.464Z,0
2017-03-15T10:28:51.718Z,0
2017-03-15T10:29:40.751Z,0
2017-03-15T10:30:28.895Z,0
2017-03-15T10:31:17.451Z,0
2017-03-15T10:32:06.017Z,0
2017-03-15T10:32:54.739Z,0
2017-03-15T10:33:43.718Z,0
2017-03-15T10:34:31.366Z,0
2017-03-15T10:35:15.341Z,0
2017-03-15T10:35:55.766Z,0
2017-03-15T10:36:40.958Z,0
2017-03-15T10:37:21.369Z,0
2017-03-15T10:38:02.077Z,0
2017-03-15T10:38:43.282Z,0
2017-03-15T10:39:23.635Z,0
2017-03-15T10:40:04.073Z,0
2017-03-15T10:40:45.383Z,0
2017-03-15T10:41:26.364Z,0
2017-03-15T10:42:07.406Z,0
2017-03-15T10:42:50.169Z,0
2017-03-15T10:51:19.270Z,1008.43
2017-03-15T10:52:07.621Z,1008.43
2017-03-15T10:52:56.212Z,1008.43
2017-03-15T10:53:45.037Z,1008.43
2017-03-15T10:54:32.766Z,1008.44
2017-03-15T10:55:21.923Z,1008.45
2017-03-15T10:56:09.866Z,1008.46
2017-03-15T10:56:58.750Z,1008.45
2017-03-15T10:57:47.597Z,1008.39
2017-03-15T10:58:36.200Z,1008.47
2017-03-15T10:59:24.620Z,1008.49
2017-03-15T11:00:13.524Z,1008.46
2017-03-15T11:01:02.103Z,1008.42
2017-03-15T11:01:50.740Z,1008.48
2017-03-15T11:02:39.599Z,1008.43
2017-03-15T11:03:27.877Z,1008.38
2017-03-15T11:05:48.618Z,1008.36
2017-03-15T11:06:37.550Z,1008.39
2017-03-15T11:07:25.746Z,1008.43
2017-03-15T11:08:14.327Z,1008.44
2017-03-15T11:09:03.125Z,1008.46
2017-03-15T11:09:51.733Z,1008.44
2017-03-15T11:12:14.053Z,1008.43
2017-03-15T11:13:03.255Z,1008.42
2017-03-15T11:13:50.900Z,1008.36
2017-03-15T11:14:39.822Z,1008.4
2017-03-15T11:15:28.658Z,1008.37
2017-03-15T11:16:17.310Z,1008.41
2017-03-15T11:17:05.762Z,1008.38
2017-03-15T11:17:54.660Z,1008.4
2017-03-15T11:18:43.102Z,1008.42
2017-03-15T11:19:31.828Z,1008.43
2017-03-15T11:20:20.775Z,1008.36
2017-03-15T11:21:09.030Z,1008.34
2017-03-15T11:21:57.773Z,1008.33
2017-03-15T11:22:40.915Z,1008.36
2017-03-15T11:23:21.392Z,1008.31
2017-03-15T11:24:01.843Z,1008.36
2017-03-15T11:24:44.868Z,1008.38
2017-03-15T11:25:25.871Z,1008.38
2017-03-15T11:26:07.027Z,1008.37
2017-03-15T11:26:48.481Z,1008.34
2017-03-15T11:27:33.916Z,1008.34
2017-03-15T11:31:19.353Z,1008.29
2017-03-15T11:32:08.355Z,1008.26
2017-03-15T11:32:56.801Z,1008.22
2017-03-15T11:33:44.327Z,1008.21
2017-03-15T11:34:33.087Z,1008.19
2017-03-15T11:35:21.579Z,1008.18
2017-03-15T11:36:10.533Z,1008.14
2017-03-15T11:36:58.866Z,1008.11
2017-03-15T11:37:47.807Z,1008.09
2017-03-15T11:38:36.273Z,1008.07
2017-03-15T11:39:25.180Z,1008
2017-03-15T11:40:13.946Z,1008
2017-03-15T11:41:02.404Z,1007.94
2017-03-15T11:41:51.356Z,1007.88
2017-03-15T11:42:39.616Z,1007.85
2017-03-15T11:43:28.290Z,1007.87
2017-03-15T11:44:17.172Z,1007.87
2017-03-15T11:45:05.928Z,1007.8
2017-03-15T11:45:54.012Z,1007.85
2017-03-15T11:46:42.949Z,1007.82
2017-03-15T11:47:31.553Z,1007.79
2017-03-15T11:48:14.589Z,1007.77
2017-03-15T11:48:55.088Z,1007.79
2017-03-15T11:49:35.590Z,1007.76
2017-03-15T11:50:16.007Z,1007.75
2017-03-15T11:50:56.563Z,1007.72
2017-03-15T11:51:37.019Z,1007.7
2017-03-15T11:52:18.055Z,1007.7
2017-03-15T11:52:58.552Z,1007.68
2017-03-15T11:53:38.999Z,1007.64
2017-03-15T11:54:19.543Z,1007.67
2017-03-15T11:55:00.038Z,1007.63
2017-03-15T11:55:41.438Z,1007.62
2017-03-15T11:56:21.932Z,1007.61
2017-03-15T11:57:02.417Z,1007.59
2017-03-15T11:57:43.437Z,1007.63
2017-03-15T11:58:23.897Z,1007.63
2017-03-15T11:59:05.098Z,1007.65
2017-03-15T11:59:46.457Z,1007.7
2017-03-15T12:00:28.877Z,1007.66
2017-03-15T12:01:10.810Z,1007.61
2017-03-15T12:01:53.987Z,1007.59
2017-03-15T12:02:36.921Z,1007.58
2017-03-15T12:03:17.971Z,1007.59
2017-03-15T12:03:58.394Z,1007.56
2017-03-15T12:04:38.844Z,1007.59
2017-03-15T12:05:19.302Z,1007.58
2017-03-15T12:05:59.930Z,1007.59
2017-03-15T12:06:40.313Z,1007.59
2017-03-15T12:07:20.776Z,1007.62
2017-03-15T12:08:02.022Z,1007.62
2017-03-15T12:08:42.540Z,1007.49
2017-03-15T12:09:23.636Z,1007.48
2017-03-15T12:10:04.097Z,1007.51
2017-03-15T12:10:45.264Z,1007.51
2017-03-15T12:11:25.764Z,1007.47
2017-03-15T12:12:07.481Z,1007.48
2017-03-15T12:12:47.929Z,1007.54
2017-03-15T12:13:28.370Z,1007.53
2017-03-15T12:14:09.473Z,1007.55
2017-03-15T12:14:49.908Z,1007.49
2017-03-15T12:15:30.399Z,1007.48
2017-03-15T12:16:11.554Z,1007.5
2017-03-15T12:16:53.872Z,1007.47
2017-03-15T12:17:34.372Z,1007.43
2017-03-15T12:18:14.814Z,1007.43
2017-03-15T12:18:56.102Z,1007.4
2017-03-15T12:19:37.232Z,1007.43
2017-03-15T12:20:17.700Z,1007.42
2017-03-15T12:20:58.201Z,1007.4
2017-03-15T12:21:38.762Z,1007.4
2017-03-15T12:22:19.218Z,1007.41
2017-03-15T12:22:59.719Z,1007.42
2017-03-15T12:23:40.125Z,1007.44
2017-03-15T12:24:20.618Z,1007.45
2017-03-15T12:25:02.388Z,1007.5
2017-03-15T12:25:42.800Z,1007.48
2017-03-15T12:26:25.885Z,1007.43
2017-03-15T12:27:06.848Z,1007.46
2017-03-15T12:27:47.313Z,1007.46
2017-03-15T12:28:27.774Z,1007.44
2017-03-15T12:29:08.937Z,1007.43
2017-03-15T12:29:50.362Z,1007.45
2017-03-15T12:30:31.666Z,1007.48
2017-03-15T12:34:33.975Z,1007.53
2017-03-15T12:35:22.989Z,1007.59
2017-03-15T12:36:10.055Z,1007.5
2017-03-15T12:36:58.959Z,1007.51
2017-03-15T12:37:48.042Z,1007.49
2017-03-15T12:38:36.658Z,1007.46
2017-03-15T12:39:25.371Z,1007.52
2017-03-15T12:40:13.591Z,1007.52
2017-03-15T12:41:02.833Z,1007.52
2017-03-15T12:41:51.524Z,1007.54
2017-03-15T12:42:40.299Z,1007.58
2017-03-15T12:43:28.653Z,1007.56
2017-03-15T12:44:18.832Z,1007.56
2017-03-15T12:45:07.531Z,1007.55
2017-03-15T12:45:50.354Z,1007.56
2017-03-15T12:46:30.890Z,1007.55
2017-03-15T12:47:11.347Z,1007.54
2017-03-15T12:47:52.833Z,1007.53
2017-03-15T12:48:33.277Z,1007.54
2017-03-15T12:49:13.806Z,1007.53
2017-03-15T12:49:58.822Z,1007.54
2017-03-15T12:50:40.239Z,1007.53
2017-03-15T12:51:21.832Z,1007.53
2017-03-15T12:52:02.298Z,1007.48
2017-03-15T12:52:42.997Z,1007.46
2017-03-15T12:55:21.174Z,1007.48
2017-03-15T12:56:10.175Z,1007.46
2017-03-15T12:56:58.781Z,1007.47
2017-03-15T12:57:47.658Z,1007.43
2017-03-15T12:58:36.273Z,1007.47
2017-03-15T12:59:24.793Z,1007.48
2017-03-15T13:00:13.617Z,1007.49
2017-03-15T13:01:02.580Z,1007.47
2017-03-15T13:01:50.906Z,1007.51
2017-03-15T13:02:39.800Z,1007.53
2017-03-15T13:03:28.206Z,1007.53
2017-03-15T13:04:17.001Z,1007.51
2017-03-15T13:05:05.585Z,1007.47
2017-03-15T13:05:54.301Z,1007.5
2017-03-15T13:06:42.980Z,1007.47
2017-03-15T13:07:32.167Z,1007.47
2017-03-15T13:08:20.971Z,1007.47
2017-03-15T13:09:09.214Z,1007.45
2017-03-15T13:09:58.139Z,1007.43
2017-03-15T13:12:03.043Z,1007.41
2017-03-15T13:12:51.690Z,1007.43
2017-03-15T13:13:39.076Z,1007.39
2017-03-15T13:14:27.845Z,1007.42
2017-03-15T13:15:16.472Z,1007.39
2017-03-15T13:16:04.969Z,1007.36
2017-03-15T13:16:54.259Z,1007.34
2017-03-15T13:17:42.635Z,1007.35
2017-03-15T13:18:31.338Z,1007.36
2017-03-15T13:19:20.339Z,1007.35
2017-03-15T13:20:08.953Z,1007.34
2017-03-15T13:20:57.543Z,1007.35
2017-03-15T13:21:46.714Z,1007.35
2017-03-15T13:22:35.350Z,1007.38
2017-03-15T13:23:23.695Z,1007.34
2017-03-15T13:24:12.325Z,1007.35
2017-03-15T13:25:01.289Z,1007.31
2017-03-15T13:25:49.923Z,1007.3
2017-03-15T13:28:10.990Z,1007.33
2017-03-15T13:28:59.979Z,1007.32
2017-03-15T13:29:48.572Z,1007.26
2017-03-15T13:30:37.069Z,1007.32
2017-03-15T13:31:26.316Z,1007.22
2017-03-15T13:32:14.782Z,1007.2
2017-03-15T13:33:03.019Z,1007.22
2017-03-15T13:33:51.933Z,1007.28
2017-03-15T13:34:40.454Z,1007.21
2017-03-15T13:35:28.739Z,1007.22
2017-03-15T13:36:17.599Z,1007.25
2017-03-15T13:37:06.287Z,1007.25
2017-03-15T13:37:54.926Z,1007.24
2017-03-15T13:38:43.367Z,1007.26
2017-03-15T13:39:31.911Z,1007.25
2017-03-15T13:40:20.792Z,1007.24
2017-03-15T13:41:09.673Z,1007.22
2017-03-15T13:41:58.032Z,1007.23
2017-03-15T13:42:47.068Z,1007.27
2017-03-15T13:43:35.336Z,1007.24
2017-03-15T13:44:24.697Z,1007.23
2017-03-15T13:45:13.269Z,1007.2
2017-03-15T13:46:01.562Z,1007.15
2017-03-15T13:46:50.661Z,1007.18
2017-03-15T13:47:38.972Z,1007.16
2017-03-15T13:48:27.737Z,1007.17
2017-03-15T13:49:16.359Z,1007.12
2017-03-15T13:50:05.181Z,1007.09
2017-03-15T13:50:53.481Z,1007.06
2017-03-15T13:51:42.386Z,1007.06
2017-03-15T13:52:31.108Z,1007.07
2017-03-15T13:53:19.775Z,1007.08
2017-03-15T13:54:08.292Z,1007.09
2017-03-15T13:54:56.979Z,1007.05
2017-03-15T13:55:45.840Z,1007.07
2017-03-15T13:56:34.702Z,1007.04
2017-03-15T13:57:23.052Z,1006.99
2017-03-15T13:58:11.789Z,1007.01
2017-03-15T13:59:00.392Z,1006.96
2017-03-15T14:02:55.464Z,1006.96
2017-03-15T14:03:46.236Z,1006.96
2017-03-15T14:04:34.719Z,1006.96
2017-03-15T14:05:22.855Z,1006.93
2017-03-15T14:06:11.074Z,1006.89
2017-03-15T14:06:59.927Z,1006.91
2017-03-15T14:07:48.851Z,1006.9
2017-03-15T14:08:37.221Z,1006.85
2017-03-15T14:09:25.726Z,1006.86
2017-03-15T14:10:14.815Z,1006.9
2017-03-15T14:11:03.494Z,1006.84
2017-03-15T14:11:52.143Z,1006.82
2017-03-15T14:12:40.656Z,1006.81
2017-03-15T14:13:30.533Z,1006.75
2017-03-15T14:14:17.973Z,1006.8
2017-03-15T14:15:06.855Z,1006.81
2017-03-15T14:15:55.482Z,1006.85
2017-03-15T14:16:44.143Z,1006.82
2017-03-15T14:17:32.678Z,1006.83
2017-03-15T14:18:21.932Z,1006.8